Time;durP1;ratioP1;P1;durP2;ratioP2;P2;SDS_P1;SDS_P2;PMS_P1;PMS_P2;Temp;Humidity;BMP_temperature;BMP_pressure;BME280_temperature;BME280_humidity;BME280_pressure;Samples;Min_cycle;Max_cycle;Signal;HPM_P1;HPM_P2
2021/12/13 00:01:13;;;;;;;27.08;13.32;;;;;;;5.00;83.36;101053.25;5060364;28;20047;-82
2021/12/13 00:03:46;;;;;;;24.17;13.65;;;;;;;5.00;83.52;101055.06;5074575;28;20048;-82
2021/12/13 00:06:18;;;;;;;25.33;11.65;;;;;;;5.03;83.41;101052.28;5067804;28;20135;-82
2021/12/13 00:08:50;;;;;;;27.27;13.80;;;;;;;5.04;83.44;101042.59;5061887;28;20036;-82
2021/12/13 00:11:29;;;;;;;24.25;11.88;;;;;;;5.04;83.59;101053.13;5043537;28;20071;-82
2021/12/13 00:13:59;;;;;;;31.38;12.45;;;;;;;5.04;83.64;101048.72;5051933;28;20048;-82
2021/12/13 00:16:35;;;;;;;29.33;13.85;;;;;;;4.99;83.71;101041.03;5066257;28;20089;-82
2021/12/13 00:19:07;;;;;;;26.20;13.77;;;;;;;5.04;83.68;101046.09;5045473;28;20373;-81
2021/12/13 00:21:46;;;;;;;27.88;14.23;;;;;;;5.06;83.61;101046.00;5053304;28;20536;-82
2021/12/13 00:24:21;;;;;;;29.13;13.82;;;;;;;5.04;83.69;101039.97;5045657;28;20046;-82
2021/12/13 00:26:51;;;;;;;26.48;13.70;;;;;;;5.07;83.70;101048.59;5064148;28;20036;-82
2021/12/13 00:29:21;;;;;;;32.08;15.13;;;;;;;5.08;84.01;101044.16;5078558;28;20044;-82
2021/12/13 00:32:23;;;;;;;26.08;12.48;;;;;;;4.99;83.73;101051.56;5060901;28;20052;-82
2021/12/13 00:34:56;;;;;;;31.55;14.75;;;;;;;5.04;83.60;101051.38;5046104;28;20036;-82
2021/12/13 00:37:25;;;;;;;31.58;13.40;;;;;;;5.07;83.95;101055.63;5027118;28;20460;-81
2021/12/13 00:40:00;;;;;;;30.52;13.98;;;;;;;5.06;83.67;101059.19;5079483;28;20064;-82
2021/12/13 00:42:33;;;;;;;30.40;14.32;;;;;;;5.09;83.89;101057.28;5037913;28;20053;-82
2021/12/13 00:45:05;;;;;;;25.83;12.65;;;;;;;5.10;83.80;101058.13;5061162;28;20044;-82
2021/12/13 00:47:33;;;;;;;29.40;14.70;;;;;;;5.12;83.89;101058.91;5062453;28;20055;-82
2021/12/13 00:50:06;;;;;;;28.90;14.60;;;;;;;5.11;83.70;101059.81;5059786;28;20048;-82
2021/12/13 00:52:35;;;;;;;28.95;15.15;;;;;;;5.13;84.01;101066.72;5063570;28;20545;-82
2021/12/13 00:55:11;;;;;;;29.30;14.52;;;;;;;5.08;83.76;101063.44;5060841;28;20492;-82
2021/12/13 00:57:44;;;;;;;37.42;16.17;;;;;;;5.09;84.03;101062.53;5032888;28;20048;-82
2021/12/13 01:00:27;;;;;;;30.90;14.52;;;;;;;5.03;84.06;101060.16;5059063;28;20044;-82
2021/12/13 01:03:09;;;;;;;30.75;14.25;;;;;;;5.09;83.80;101070.44;5029659;28;20047;-82
2021/12/13 01:06:07;;;;;;;28.08;13.82;;;;;;;5.07;84.08;101066.16;5044071;28;20055;-81
2021/12/13 01:09:18;;;;;;;38.38;17.45;;;;;;;5.02;84.17;101068.16;5043292;28;20123;-82
2021/12/13 01:11:58;;;;;;;31.05;15.20;;;;;;;5.05;84.03;101062.75;5029338;28;20242;-82
2021/12/13 01:14:29;;;;;;;36.30;16.83;;;;;;;5.11;84.14;101073.81;5011245;28;20044;-83
2021/12/13 01:17:04;;;;;;;32.88;15.93;;;;;;;5.13;84.08;101073.78;5072537;28;20048;-82
2021/12/13 01:19:57;;;;;;;36.00;16.08;;;;;;;5.12;84.06;101066.81;5062869;28;20052;-82
2021/12/13 01:23:15;;;;;;;34.90;15.82;;;;;;;5.08;84.14;101070.50;5054016;28;20058;-82
2021/12/13 01:25:47;;;;;;;46.53;17.70;;;;;;;5.09;84.19;101065.16;4983746;28;20055;-82
2021/12/13 01:28:41;;;;;;;47.83;20.00;;;;;;;5.06;84.42;101067.06;5074718;28;20044;-82
2021/12/13 01:31:14;;;;;;;43.10;16.90;;;;;;;5.12;84.17;101067.66;5024781;28;20036;-82
2021/12/13 01:33:45;;;;;;;45.05;17.88;;;;;;;5.14;84.34;101068.44;5057204;28;20041;-81
2021/12/13 01:36:18;;;;;;;42.85;19.65;;;;;;;5.14;84.34;101073.72;5061229;28;20040;-82
2021/12/13 01:38:49;;;;;;;38.78;18.48;;;;;;;5.14;84.38;101065.81;5064967;28;20056;-82
2021/12/13 01:41:40;;;;;;;40.63;17.00;;;;;;;5.08;84.18;101075.75;5076266;28;20056;-82
2021/12/13 01:44:10;;;;;;;37.33;16.77;;;;;;;5.15;84.33;101069.28;5052064;28;20048;-82
2021/12/13 01:46:41;;;;;;;40.30;17.25;;;;;;;5.15;84.23;101064.03;5059007;28;20404;-82
2021/12/13 01:49:09;;;;;;;35.75;15.98;;;;;;;5.18;84.32;101074.41;5061520;28;20051;-82
2021/12/13 01:51:36;;;;;;;37.78;17.73;;;;;;;5.19;84.39;101074.34;5062225;28;20450;-83
2021/12/13 01:54:09;;;;;;;45.42;19.10;;;;;;;5.17;84.20;101067.44;5057459;28;20052;-82
2021/12/13 01:57:11;;;;;;;51.30;18.20;;;;;;;5.13;84.46;101064.09;5057564;28;20040;-82
2021/12/13 01:59:47;;;;;;;34.60;16.50;;;;;;;5.18;84.43;101063.88;5045924;28;20110;-82
2021/12/13 02:02:16;;;;;;;40.00;18.42;;;;;;;5.20;84.55;101062.03;5061724;28;20139;-81
2021/12/13 02:04:46;;;;;;;32.03;14.35;;;;;;;5.20;84.41;101065.53;5059277;28;20048;-82
2021/12/13 02:08:07;;;;;;;29.80;14.73;;;;;;;5.10;84.29;101069.50;5062613;28;20041;-82
2021/12/13 02:10:36;;;;;;;42.17;16.83;;;;;;;5.18;84.58;101062.09;5005079;28;20044;-82
2021/12/13 02:13:10;;;;;;;35.53;16.40;;;;;;;5.19;84.59;101065.56;5027979;28;20102;-82
2021/12/13 02:18:30;;;;;;;33.42;14.13;;;;;;;5.19;84.68;101063.81;5061589;28;20048;-81
2021/12/13 02:21:52;;;;;;;37.08;15.27;;;;;;;5.13;84.60;101077.25;5064446;28;20125;-82
2021/12/13 02:24:20;;;;;;;33.25;16.00;;;;;;;5.22;84.57;101079.47;4981461;28;20049;-82
2021/12/13 02:26:48;;;;;;;37.45;15.63;;;;;;;5.23;84.62;101078.53;5066036;28;20102;-82
2021/12/13 02:29:20;;;;;;;32.67;14.70;;;;;;;5.22;84.56;101086.53;5061023;28;20045;-82
2021/12/13 02:31:47;;;;;;;36.45;15.60;;;;;;;5.24;84.73;101084.69;5060156;28;20044;-82
2021/12/13 02:34:18;;;;;;;34.15;16.48;;;;;;;5.20;84.61;101078.69;5053696;28;20044;-82
2021/12/13 02:36:49;;;;;;;30.88;16.02;;;;;;;5.25;84.57;101078.47;5063000;28;20068;-82
2021/12/13 02:39:21;;;;;;;32.28;16.13;;;;;;;5.25;84.41;101078.47;5041073;28;20443;-82
2021/12/13 02:41:48;;;;;;;29.17;13.73;;;;;;;5.27;84.78;101083.69;5073420;28;20045;-82
2021/12/13 02:44:22;;;;;;;31.23;14.13;;;;;;;5.23;84.36;101078.53;5075190;28;20044;-82
2021/12/13 02:46:55;;;;;;;33.97;15.48;;;;;;;5.24;84.49;101071.50;5030487;28;20059;-82
2021/12/13 02:49:22;;;;;;;29.00;14.63;;;;;;;5.25;84.69;101070.56;5064107;28;20069;-82
2021/12/13 02:51:58;;;;;;;31.63;13.73;;;;;;;5.21;84.24;101069.84;5066807;28;20442;-82
2021/12/13 02:54:28;;;;;;;26.17;12.63;;;;;;;5.27;84.48;101073.16;5048569;28;20047;-82
2021/12/13 02:57:01;;;;;;;29.42;14.20;;;;;;;5.24;84.45;101079.41;5066053;28;20044;-82
2021/12/13 02:59:30;;;;;;;32.65;15.25;;;;;;;5.26;84.68;101080.16;5065524;28;20055;-82
2021/12/13 03:02:04;;;;;;;27.30;13.35;;;;;;;5.27;84.60;101084.53;5082246;28;20044;-82
2021/12/13 03:08:23;;;;;;;29.48;14.85;;;;;;;5.23;84.36;101096.13;5062186;28;20044;-82
2021/12/13 03:10:55;;;;;;;34.58;15.85;;;;;;;5.23;84.56;101094.34;5046870;28;20053;-81
2021/12/13 03:13:22;;;;;;;34.42;16.50;;;;;;;5.26;84.64;101097.75;5063041;28;20407;-82
2021/12/13 03:15:57;;;;;;;31.90;14.98;;;;;;;5.26;84.70;101095.13;5035006;28;20049;-83
2021/12/13 03:18:35;;;;;;;40.88;16.17;;;;;;;5.20;84.82;101094.47;5043071;28;20040;-82
2021/12/13 03:21:25;;;;;;;34.95;16.77;;;;;;;5.19;84.68;101092.78;5060642;28;20048;-82
2021/12/13 03:24:36;;;;;;;35.35;15.60;;;;;;;5.17;85.00;101099.03;5042203;28;20094;-83
2021/12/13 03:27:40;;;;;;;33.65;15.07;;;;;;;5.19;84.79;101097.19;4937485;28;20049;-82
2021/12/13 03:30:16;;;;;;;31.27;13.15;;;;;;;5.23;84.67;101090.84;5064547;28;20055;-83
2021/12/13 03:32:55;;;;;;;32.72;14.55;;;;;;;5.22;84.71;101097.06;5063262;28;20052;-83
2021/12/13 03:35:39;;;;;;;30.80;15.77;;;;;;;5.20;84.80;101093.63;5065902;28;20044;-82
2021/12/13 03:38:12;;;;;;;27.15;13.30;;;;;;;5.25;84.87;101089.00;5052216;28;20040;-82
2021/12/13 03:40:40;;;;;;;27.17;13.85;;;;;;;5.26;84.72;101093.34;5046219;28;20044;-83
2021/12/13 03:43:13;;;;;;;26.05;12.55;;;;;;;5.25;84.70;101093.44;5063528;28;20495;-82
2021/12/13 03:45:48;;;;;;;31.25;14.68;;;;;;;5.25;84.61;101091.66;5056853;28;20095;-82
2021/12/13 03:48:28;;;;;;;26.25;12.93;;;;;;;5.25;84.57;101091.66;5041523;28;20567;-81
2021/12/13 03:50:59;;;;;;;31.40;14.70;;;;;;;5.30;84.76;101094.06;5060597;28;20139;-82
2021/12/13 03:53:28;;;;;;;29.27;13.70;;;;;;;5.32;84.82;101093.06;5076851;28;20064;-82
2021/12/13 03:56:02;;;;;;;23.02;13.30;;;;;;;5.33;84.87;101096.56;5063373;28;20052;-82
2021/12/13 03:58:33;;;;;;;21.15;10.70;;;;;;;5.34;84.81;101101.75;5060183;28;20044;-83
2021/12/13 04:01:25;;;;;;;22.75;12.63;;;;;;;5.27;84.79;101104.75;5063127;28;20043;-82
2021/12/13 04:03:58;;;;;;;23.40;11.13;;;;;;;5.34;84.90;101106.16;5012220;28;20043;-82
2021/12/13 04:06:25;;;;;;;25.65;10.18;;;;;;;5.35;84.86;101102.63;5069178;28;20048;-82
2021/12/13 04:08:55;;;;;;;23.50;11.30;;;;;;;5.35;84.81;101102.63;5051673;28;20040;-82
2021/12/13 04:11:24;;;;;;;21.40;11.70;;;;;;;5.35;84.89;101102.63;5048197;28;20072;-83
2021/12/13 04:14:05;;;;;;;21.27;9.77;;;;;;;5.33;84.56;101093.94;5053959;28;20491;-82
2021/12/13 04:17:19;;;;;;;20.05;10.15;;;;;;;5.31;84.71;101091.34;5062288;28;20041;-82
2021/12/13 04:19:53;;;;;;;21.08;10.65;;;;;;;5.31;84.72;101093.97;5008505;28;20091;-82
2021/12/13 04:22:25;;;;;;;22.38;10.88;;;;;;;5.34;84.73;101091.22;5056378;28;20044;-81
2021/12/13 04:25:08;;;;;;;19.55;10.45;;;;;;;5.32;84.90;101098.34;5059382;28;20098;-82
2021/12/13 04:28:02;;;;;;;22.08;10.80;;;;;;;5.32;84.68;101087.81;5078240;28;20408;-82
2021/12/13 04:30:31;;;;;;;;;;;;;;;5.18;85.17;101090.22;5044681;28;20365;-82
2021/12/13 04:33:03;;;;;;;20.25;9.85;;;;;;;5.32;84.81;101092.22;5063159;28;19919;-82
2021/12/13 04:35:30;;;;;;;17.23;8.60;;;;;;;5.35;84.84;101092.94;5079525;28;20047;-82
2021/12/13 04:38:00;;;;;;;22.27;10.40;;;;;;;5.37;84.80;101090.22;5079357;28;20044;-82
2021/12/13 04:40:29;;;;;;;20.40;10.38;;;;;;;5.37;84.73;101091.09;5060670;28;20108;-82
2021/12/13 04:43:00;;;;;;;19.33;9.07;;;;;;;5.37;84.61;101098.97;5050632;28;20395;-82
2021/12/13 04:45:28;;;;;;;16.25;8.23;;;;;;;5.39;84.86;101102.41;5067418;28;20479;-82
2021/12/13 04:48:04;;;;;;;19.77;9.18;;;;;;;5.38;84.56;101105.94;5066063;28;20059;-82
2021/12/13 04:51:05;;;;;;;24.15;10.63;;;;;;;5.31;84.42;101103.66;5055994;28;20048;-82
2021/12/13 04:53:37;;;;;;;21.75;10.40;;;;;;;5.37;84.46;101101.63;4992554;28;20127;-81
2021/12/13 04:56:32;;;;;;;27.08;10.02;;;;;;;5.30;84.53;101101.97;5047289;28;20478;-81
2021/12/13 04:59:01;;;;;;;23.70;10.70;;;;;;;5.40;84.54;101111.16;5006051;28;20040;-82
2021/12/13 05:01:27;;;;;;;22.77;10.70;;;;;;;5.43;84.64;101121.53;5067023;28;20040;-82
2021/12/13 05:04:02;;;;;;;22.10;10.27;;;;;;;5.37;84.51;101119.22;5074162;28;20500;-81
2021/12/13 05:06:33;;;;;;;22.65;11.90;;;;;;;5.41;84.60;101126.03;5063173;28;20041;-82
2021/12/13 05:09:04;;;;;;;23.48;10.55;;;;;;;5.40;84.63;101119.06;5053546;28;20044;-82
2021/12/13 05:11:39;;;;;;;20.15;9.65;;;;;;;5.39;84.46;101122.59;5029971;28;20377;-82
2021/12/13 05:14:08;;;;;;;19.92;10.05;;;;;;;5.44;84.74;101125.88;5076426;28;20412;-82
2021/12/13 05:17:25;;;;;;;20.50;10.32;;;;;;;5.32;84.50;101119.41;5057471;28;20044;-82
2021/12/13 05:20:07;;;;;;;17.40;8.82;;;;;;;5.40;84.68;101125.19;5035217;28;20494;-83
2021/12/13 05:22:48;;;;;;;21.92;10.90;;;;;;;5.36;84.72;101128.00;5045401;28;20044;-82
2021/12/13 05:25:22;;;;;;;19.85;9.57;;;;;;;5.38;84.71;101124.38;5071906;28;20043;-82
2021/12/13 05:27:58;;;;;;;17.67;8.60;;;;;;;5.37;84.60;101121.84;5031593;28;20043;-82
2021/12/13 05:30:26;;;;;;;21.88;11.48;;;;;;;5.43;84.43;101130.28;5064070;28;20075;-82
2021/12/13 05:32:58;;;;;;;27.40;14.10;;;;;;;5.42;84.35;101127.75;5064208;28;20054;-83
2021/12/13 05:35:29;;;;;;;30.05;15.25;;;;;;;5.40;84.51;101130.44;5064898;28;20925;-83
2021/12/13 05:37:59;;;;;;;29.67;15.27;;;;;;;5.45;84.36;101135.50;5061123;28;20059;-83
2021/12/13 05:40:29;;;;;;;24.63;12.73;;;;;;;5.44;84.47;101141.69;5080299;28;20047;-82
2021/12/13 05:42:58;;;;;;;23.92;12.75;;;;;;;5.47;84.53;101140.69;5057256;28;20056;-82
2021/12/13 05:45:39;;;;;;;20.17;11.18;;;;;;;5.38;84.51;101140.19;5060641;28;20060;-82
2021/12/13 05:48:08;;;;;;;21.38;10.93;;;;;;;5.47;84.57;101145.94;5036007;28;20107;-83
2021/12/13 05:50:42;;;;;;;25.30;11.07;;;;;;;5.44;84.36;101141.69;5063146;28;20044;-82
2021/12/13 05:53:13;;;;;;;22.52;11.65;;;;;;;5.48;84.51;101147.69;5077025;28;20048;-82
2021/12/13 05:55:45;;;;;;;22.20;11.35;;;;;;;5.44;84.39;101139.94;5063065;28;20044;-83
2021/12/13 05:58:37;;;;;;;22.10;11.77;;;;;;;5.40;84.21;101140.13;5059429;28;20424;-82
2021/12/13 06:01:12;;;;;;;20.35;10.32;;;;;;;5.46;84.52;101146.88;5042097;28;20089;-82
2021/12/13 06:04:22;;;;;;;23.65;11.52;;;;;;;5.37;84.22;101154.28;5031520;28;20044;-82
2021/12/13 06:06:52;;;;;;;18.45;8.98;;;;;;;5.47;84.55;101156.50;5019118;28;20044;-82
2021/12/13 06:09:43;;;;;;;20.27;9.02;;;;;;;5.39;84.46;101162.09;5052907;28;20557;-82
2021/12/13 06:12:13;;;;;;;18.23;9.30;;;;;;;5.48;84.52;101158.22;5029455;28;20045;-82
2021/12/13 06:14:40;;;;;;;20.08;10.40;;;;;;;5.47;84.70;101157.38;5059855;28;20049;-82
2021/12/13 06:17:12;;;;;;;15.75;9.32;;;;;;;5.49;84.61;101159.91;5056694;28;20044;-82
2021/12/13 06:19:46;;;;;;;17.52;9.30;;;;;;;5.48;84.50;101151.16;5079617;28;20046;-82
2021/12/13 06:22:43;;;;;;;15.15;8.45;;;;;;;5.39;84.34;101144.56;5071977;28;20044;-82
2021/12/13 06:25:16;;;;;;;18.55;9.07;;;;;;;5.47;84.35;101154.72;5032270;28;20669;-82
2021/12/13 06:27:51;;;;;;;16.90;9.43;;;;;;;5.49;84.85;101158.13;5045794;28;20045;-82
2021/12/13 06:30:20;;;;;;;15.10;8.50;;;;;;;5.51;84.66;101155.44;5048108;28;20041;-82
2021/12/13 06:33:01;;;;;;;16.23;8.73;;;;;;;5.49;84.61;101154.66;5062952;28;20041;-82
2021/12/13 06:35:31;;;;;;;19.55;10.05;;;;;;;5.50;84.38;101159.00;5029574;28;20048;-81
2021/12/13 06:38:00;;;;;;;18.50;9.82;;;;;;;5.51;84.82;101172.09;5076256;28;20057;-80
2021/12/13 06:40:29;;;;;;;20.40;8.68;;;;;;;5.51;84.54;101160.72;5064098;28;20037;-82
2021/12/13 06:42:58;;;;;;;19.90;9.82;;;;;;;5.51;84.58;101164.19;5062512;28;20106;-82
2021/12/13 06:45:34;;;;;;;17.65;9.10;;;;;;;5.48;84.42;101164.34;5064775;28;20047;-85
2021/12/13 06:48:05;;;;;;;16.73;9.07;;;;;;;5.50;84.47;101169.53;5057705;28;20044;-81
2021/12/13 06:50:37;;;;;;;16.08;9.05;;;;;;;5.50;84.47;101165.13;5081394;28;20143;-81
2021/12/13 06:53:12;;;;;;;17.20;8.82;;;;;;;5.49;84.49;101175.72;5062433;28;20376;-82
2021/12/13 06:55:39;;;;;;;20.75;8.75;;;;;;;5.54;84.64;101173.72;5057322;28;20052;-82
2021/12/13 06:58:19;;;;;;;18.92;8.32;;;;;;;5.48;84.37;101177.50;5055698;28;20059;-81
2021/12/13 07:00:52;;;;;;;13.88;7.93;;;;;;;5.51;84.37;101182.63;5053782;28;21034;-82
2021/12/13 07:03:33;;;;;;;18.73;8.27;;;;;;;5.49;84.43;101178.34;5079943;28;20466;-82
2021/12/13 07:06:04;;;;;;;13.93;7.90;;;;;;;5.53;84.11;101182.56;5037916;28;20901;-81
2021/12/13 07:08:34;;;;;;;14.40;7.82;;;;;;;5.54;84.40;101179.84;5079064;28;20055;-81
2021/12/13 07:11:05;;;;;;;17.13;8.18;;;;;;;5.54;84.39;101176.38;5066623;28;20079;-81
2021/12/13 07:13:51;;;;;;;18.08;8.50;;;;;;;5.52;84.03;101187.00;5076058;28;20046;-81
2021/12/13 07:16:25;;;;;;;13.50;8.05;;;;;;;5.52;84.12;101186.13;5050973;28;20523;-82
2021/12/13 07:19:05;;;;;;;17.25;8.55;;;;;;;5.49;84.16;101184.47;5029308;28;20068;-82
2021/12/13 07:21:55;;;;;;;15.90;8.40;;;;;;;5.48;84.03;101188.03;5010368;28;20053;-82
2021/12/13 07:24:40;;;;;;;19.85;8.40;;;;;;;5.47;84.12;101188.97;5061922;28;20051;-84
2021/12/13 07:27:13;;;;;;;12.35;8.18;;;;;;;5.53;84.18;101190.47;5055135;28;20045;-84
2021/12/13 07:30:21;;;;;;;16.63;8.60;;;;;;;5.40;84.26;101190.19;5045675;28;20071;-83
2021/12/13 07:33:14;;;;;;;16.08;8.45;;;;;;;5.43;84.13;101182.13;4928696;28;20537;-83
2021/12/13 07:35:48;;;;;;;15.75;8.52;;;;;;;5.48;84.10;101192.47;4933710;28;20518;-84
2021/12/13 07:38:18;;;;;;;16.80;8.68;;;;;;;5.52;84.34;101196.66;5013067;28;20047;-83
2021/12/13 07:40:49;;;;;;;14.30;8.13;;;;;;;5.51;84.17;101198.44;5046672;28;20500;-82
2021/12/13 07:43:26;;;;;;;18.13;8.80;;;;;;;5.52;84.35;101197.53;5081901;28;20059;-84
2021/12/13 07:46:01;;;;;;;22.10;10.57;;;;;;;5.51;84.03;101200.22;5075831;28;20127;-84
2021/12/13 07:48:39;;;;;;;18.90;9.73;;;;;;;5.53;84.22;101204.50;5052684;28;20076;-84
2021/12/13 07:51:19;;;;;;;22.33;11.35;;;;;;;5.50;84.26;101207.28;5073543;28;21368;-83
2021/12/13 07:54:14;;;;;;;19.80;10.05;;;;;;;5.44;84.14;101207.53;5058311;28;20120;-81
2021/12/13 07:56:46;;;;;;;15.75;9.48;;;;;;;5.53;84.22;101206.28;5031211;28;20048;-83
2021/12/13 07:59:23;;;;;;;18.55;9.45;;;;;;;5.51;84.40;101216.03;5071731;28;20488;-83
2021/12/13 08:02:23;;;;;;;20.90;10.55;;;;;;;5.47;84.57;101214.44;5074743;28;20044;-81
2021/12/13 08:05:00;;;;;;;17.27;9.82;;;;;;;5.51;84.52;101210.75;5035992;28;20037;-82
2021/12/13 08:07:32;;;;;;;17.65;10.68;;;;;;;5.55;84.58;101214.97;5049371;28;20522;-82
2021/12/13 08:10:04;;;;;;;21.83;10.48;;;;;;;5.55;84.73;101209.72;5032934;28;20132;-81
2021/12/13 08:12:41;;;;;;;22.65;11.30;;;;;;;5.54;84.50;101215.88;5058907;28;20556;-81
2021/12/13 08:15:28;;;;;;;19.15;10.07;;;;;;;5.51;84.67;101216.88;5050972;28;20041;-81
2021/12/13 08:18:01;;;;;;;17.40;10.25;;;;;;;5.55;84.71;101214.97;5045637;28;20089;-80
2021/12/13 08:20:45;;;;;;;19.98;10.30;;;;;;;5.52;84.93;101218.59;5070688;28;20040;-80
2021/12/13 08:23:23;;;;;;;18.10;10.30;;;;;;;5.54;84.89;101213.25;5035255;28;20048;-79
2021/12/13 08:25:54;;;;;;;19.30;10.63;;;;;;;5.61;85.05;101214.69;5053896;28;20036;-82
2021/12/13 08:28:40;;;;;;;23.40;11.00;;;;;;;5.53;84.75;101209.78;5039827;28;20049;-81
2021/12/13 08:31:09;;;;;;;18.83;10.23;;;;;;;5.60;84.83;101221.75;5053621;28;20047;-86
2021/12/13 08:33:40;;;;;;;22.33;11.18;;;;;;;5.62;84.80;101222.53;5063076;28;20062;-81
2021/12/13 08:36:12;;;;;;;25.25;12.15;;;;;;;5.64;84.62;101225.09;5061539;28;20056;-81
2021/12/13 08:38:49;;;;;;;20.88;11.57;;;;;;;5.59;84.71;101227.06;5080712;28;20135;-81
2021/12/13 08:41:20;;;;;;;18.70;10.70;;;;;;;5.65;84.72;101232.09;5057826;28;20088;-81
2021/12/13 08:43:50;;;;;;;19.13;9.68;;;;;;;5.68;84.86;101228.44;5077031;28;20041;-81
2021/12/13 08:46:40;;;;;;;20.73;10.65;;;;;;;5.61;84.61;101231.34;5061750;28;20060;-81
2021/12/13 08:49:40;;;;;;;19.08;10.02;;;;;;;5.59;84.82;101233.19;5059532;28;20067;-81
2021/12/13 08:52:20;;;;;;;17.65;9.43;;;;;;;5.60;84.71;101232.28;4970853;28;20040;-80
2021/12/13 08:55:24;;;;;;;19.58;9.32;;;;;;;5.60;84.71;101234.91;5056223;28;20500;-81
2021/12/13 08:58:14;;;;;;;17.30;9.25;;;;;;;5.61;84.63;101227.88;5037089;28;20527;-81
2021/12/13 09:00:44;;;;;;;19.58;9.18;;;;;;;5.73;84.81;101231.72;5068556;28;20097;-81
2021/12/13 09:03:26;;;;;;;20.23;9.50;;;;;;;5.75;84.79;101237.75;5060909;28;20056;-81
2021/12/13 09:06:07;;;;;;;17.33;9.43;;;;;;;5.72;84.66;101233.47;5059786;28;20047;-81
2021/12/13 09:08:46;;;;;;;18.20;9.02;;;;;;;5.71;84.38;101234.41;5061611;28;20052;-82
2021/12/13 09:11:31;;;;;;;20.75;9.75;;;;;;;5.74;84.46;101231.63;5046362;28;20052;-81
2021/12/13 09:14:20;;;;;;;24.23;10.20;;;;;;;5.73;84.48;101235.22;5045047;28;20418;-81
2021/12/13 09:16:55;;;;;;;17.83;9.95;;;;;;;5.81;84.84;101245.41;5033678;28;20097;-81
2021/12/13 09:19:30;;;;;;;19.90;8.80;;;;;;;5.77;84.62;101247.31;5080458;28;20048;-81
2021/12/13 09:22:09;;;;;;;16.75;8.63;;;;;;;5.80;84.85;101244.56;5043572;28;20879;-80
2021/12/13 09:24:41;;;;;;;21.50;10.60;;;;;;;5.83;84.73;101240.94;5045249;28;20040;-80
2021/12/13 09:27:17;;;;;;;21.90;9.95;;;;;;;5.84;84.79;101245.25;5034235;28;20581;-80
2021/12/13 09:30:07;;;;;;;15.88;9.02;;;;;;;5.75;84.82;101240.41;5020291;28;20091;-80
2021/12/13 09:32:46;;;;;;;23.35;11.73;;;;;;;5.83;84.86;101247.03;5015639;28;20187;-80
2021/12/13 09:35:19;;;;;;;20.48;10.60;;;;;;;5.83;84.98;101249.69;5028033;28;20052;-80
2021/12/13 09:37:47;;;;;;;21.50;9.65;;;;;;;5.91;84.93;101240.56;5019655;28;20098;-79
2021/12/13 09:40:15;;;;;;;15.45;9.25;;;;;;;5.92;84.92;101240.47;5014362;28;20402;-80
2021/12/13 09:42:50;;;;;;;19.98;9.45;;;;;;;5.90;84.72;101236.19;5038689;28;20060;-80
2021/12/13 09:45:27;;;;;;;20.92;10.10;;;;;;;5.91;84.83;101230.03;5023185;28;20055;-80
2021/12/13 09:47:54;;;;;;;16.38;8.63;;;;;;;5.97;84.96;101240.31;5020802;28;20044;-80
2021/12/13 09:50:25;;;;;;;20.95;10.13;;;;;;;5.97;84.77;101235.03;5021053;28;20996;-80
2021/12/13 09:52:58;;;;;;;17.83;9.88;;;;;;;5.98;84.50;101237.59;5022747;28;20056;-81
2021/12/13 09:55:30;;;;;;;;;;;;;;;5.81;84.77;101243.63;5029331;28;20052;-80
2021/12/13 09:58:09;;;;;;;19.45;9.63;;;;;;;5.94;84.42;101238.66;5055063;28;19920;-82
2021/12/13 10:00:53;;;;;;;18.13;9.20;;;;;;;5.92;84.22;101237.84;5053857;28;20045;-83
2021/12/13 10:03:45;;;;;;;22.10;9.25;;;;;;;5.92;84.53;101226.44;5064077;28;20045;-81
2021/12/13 10:06:17;;;;;;;17.02;9.30;;;;;;;5.96;84.46;101222.78;5014150;28;20041;-81
2021/12/13 10:08:49;;;;;;;16.60;8.75;;;;;;;6.00;84.26;101221.69;5043844;28;20041;-81
2021/12/13 10:11:37;;;;;;;17.25;8.95;;;;;;;5.94;84.34;101229.91;5067261;28;20102;-79
2021/12/13 10:14:06;;;;;;;12.23;7.80;;;;;;;6.02;84.51;101225.97;5023869;28;20447;-81
2021/12/13 10:16:41;;;;;;;17.95;9.18;;;;;;;6.03;84.54;101222.44;5008266;28;20057;-81
2021/12/13 10:19:12;;;;;;;16.58;8.23;;;;;;;6.04;84.63;101218.00;5041420;28;20072;-81
2021/12/13 10:21:42;;;;;;;22.20;11.35;;;;;;;6.08;84.76;101224.81;5042689;28;20211;-81
2021/12/13 10:24:16;;;;;;;19.13;8.93;;;;;;;6.11;84.44;101222.06;5024998;28;20041;-81
2021/12/13 10:26:44;;;;;;;16.85;9.07;;;;;;;6.13;84.58;101220.22;5025309;28;20770;-81
2021/12/13 10:29:26;;;;;;;22.35;9.88;;;;;;;6.13;84.32;101214.94;5023740;28;20045;-81
2021/12/13 10:32:01;;;;;;;16.20;9.70;;;;;;;6.12;84.19;101210.56;5038485;28;20049;-80
2021/12/13 10:34:37;;;;;;;21.98;9.35;;;;;;;6.12;84.25;101215.00;4992797;28;20057;-80
2021/12/13 10:37:09;;;;;;;21.20;9.90;;;;;;;6.16;84.29;101211.28;5021910;28;20400;-80
2021/12/13 10:39:43;;;;;;;17.63;8.98;;;;;;;6.15;84.23;101213.06;5036558;28;20048;-83
2021/12/13 10:42:22;;;;;;;21.55;10.38;;;;;;;6.20;84.12;101218.97;5035520;28;20040;-83
2021/12/13 10:44:49;;;;;;;16.13;8.85;;;;;;;6.20;84.11;101215.47;5023124;28;20715;-85
2021/12/13 10:47:21;;;;;;;15.02;9.02;;;;;;;6.21;84.19;101214.56;5071148;28;20562;-85
2021/12/13 10:50:45;;;;;;;17.73;9.23;;;;;;;6.12;83.98;101213.22;5030998;28;20048;-87
2021/12/13 10:53:15;;;;;;;19.77;9.98;;;;;;;6.23;84.01;101213.56;5000033;28;20055;-83
2021/12/13 10:55:51;;;;;;;19.50;9.38;;;;;;;6.19;83.78;101209.34;5064177;28;20613;-81
2021/12/13 10:58:23;;;;;;;18.48;9.75;;;;;;;6.23;83.84;101200.38;5063213;28;20113;-81
2021/12/13 11:00:58;;;;;;;20.27;10.00;;;;;;;6.21;83.87;101210.13;5079813;28;20161;-81
2021/12/13 11:03:30;;;;;;;16.63;9.63;;;;;;;6.23;84.08;101210.03;5049088;28;20036;-82
2021/12/13 11:05:59;;;;;;;23.10;11.60;;;;;;;6.27;84.12;101199.28;5061170;28;20131;-81
2021/12/13 11:08:27;;;;;;;18.50;9.60;;;;;;;6.28;84.25;101200.13;5048927;28;20044;-81
2021/12/13 11:11:09;;;;;;;21.65;10.02;;;;;;;6.26;83.75;101204.66;5062217;28;20585;-80
2021/12/13 11:13:38;;;;;;;21.52;9.93;;;;;;;6.27;84.01;101201.91;5060568;28;20051;-82
2021/12/13 11:16:14;;;;;;;21.60;9.45;;;;;;;6.30;83.84;101199.13;5064226;28;20045;-82
2021/12/13 11:18:45;;;;;;;17.13;9.27;;;;;;;6.33;83.89;101195.47;5055979;28;20059;-82
2021/12/13 11:21:22;;;;;;;18.77;9.85;;;;;;;6.33;83.75;101192.00;5061865;28;20051;-82
2021/12/13 11:23:51;;;;;;;18.08;8.95;;;;;;;6.37;83.55;101193.56;5027314;28;20484;-82
2021/12/13 11:26:22;;;;;;;19.05;9.55;;;;;;;6.40;83.85;101193.41;5063041;28;20041;-83
2021/12/13 11:29:19;;;;;;;18.48;10.85;;;;;;;6.29;83.95;101192.16;5064106;28;20044;-82
2021/12/13 11:31:52;;;;;;;16.15;9.10;;;;;;;6.39;83.64;101191.72;5021221;28;20051;-82
2021/12/13 11:34:42;;;;;;;16.67;8.65;;;;;;;6.33;83.65;101187.56;5063031;28;20059;-82
2021/12/13 11:37:11;;;;;;;13.82;8.65;;;;;;;6.42;83.93;101196.81;5041340;28;20541;-81
2021/12/13 11:40:26;;;;;;;18.23;9.50;;;;;;;6.34;83.58;101191.09;5063793;28;20052;-83
2021/12/13 11:43:11;;;;;;;17.85;9.88;;;;;;;6.34;83.87;101194.56;4949761;28;20053;-82
2021/12/13 11:46:06;;;;;;;15.18;9.25;;;;;;;6.33;83.91;101189.34;5062181;28;20043;-81
2021/12/13 11:49:24;;;;;;;20.20;8.57;;;;;;;6.34;84.02;101183.16;5010280;28;20045;-83
2021/12/13 11:52:09;;;;;;;15.35;8.90;;;;;;;6.43;83.50;101188.81;5038160;28;20077;-84
2021/12/13 11:55:10;;;;;;;17.67;9.07;;;;;;;6.37;83.62;101190.94;4948656;28;20126;-84
2021/12/13 11:58:02;;;;;;;14.02;8.40;;;;;;;6.36;83.92;101189.19;4925229;28;20062;-84
2021/12/13 12:00:48;;;;;;;19.02;8.35;;;;;;;6.42;83.66;101186.28;4899139;28;20058;-81
2021/12/13 12:07:40;;;;;;;16.23;8.57;;;;;;;6.43;83.82;101183.53;4893968;28;20763;-82
2021/12/13 12:11:01;;;;;;;17.50;8.10;;;;;;;6.41;83.84;101187.19;4918614;28;20534;-82
2021/12/13 12:13:52;;;;;;;16.48;7.82;;;;;;;6.41;84.07;101187.19;4889309;28;20047;-84
2021/12/13 12:21:29;;;;;;;18.98;9.15;;;;;;;6.43;84.04;101174.78;5005312;28;20024;-83
2021/12/13 12:23:58;;;;;;;21.02;9.05;;;;;;;6.57;84.06;101163.56;5047071;28;20507;-85
2021/12/13 12:26:27;;;;;;;12.57;8.32;;;;;;;6.58;83.89;101163.47;5065059;28;20058;-85